createdAt,value
2022-09-10T00:01:20.912Z,11.43
2022-09-10T00:03:51.171Z,11.31
2022-09-10T00:06:19.128Z,11.39
2022-09-10T00:08:47.344Z,11.33
2022-09-10T00:11:15.441Z,11.32
2022-09-10T00:13:43.523Z,11.36
2022-09-10T00:16:13.666Z,11.29
2022-09-10T00:18:42.115Z,11.29
2022-09-10T00:21:12.525Z,11.26
2022-09-10T00:23:40.893Z,11.26
2022-09-10T00:26:21.867Z,11.19
2022-09-10T00:28:50.692Z,11.29
2022-09-10T00:31:19.210Z,11.21
2022-09-10T00:33:46.445Z,11.17
2022-09-10T00:36:23.288Z,11.17
2022-09-10T00:38:52.269Z,11.13
2022-09-10T00:41:22.443Z,11.14
2022-09-10T00:44:02.374Z,11.18
2022-09-10T00:46:32.889Z,11.28
2022-09-10T00:49:03.582Z,11.16
2022-09-10T00:51:34.481Z,11.10
2022-09-10T00:54:03.982Z,11.15
2022-09-10T00:56:32.584Z,11.08
2022-09-10T00:59:01.552Z,11.05
2022-09-10T01:01:29.066Z,11.10
2022-09-10T01:03:56.630Z,11.04
2022-09-10T01:06:24.165Z,11.12
2022-09-10T01:08:51.427Z,11.06
2022-09-10T01:11:46.625Z,11.08
2022-09-10T01:14:36.051Z,11.24
2022-09-10T01:17:25.956Z,11.11
2022-09-10T01:20:40.533Z,11.14
2022-09-10T01:23:32.701Z,11.12
2022-09-10T01:26:06.141Z,11.08
2022-09-10T01:28:56.594Z,11.04
2022-09-10T01:31:31.552Z,11.14
2022-09-10T01:34:16.936Z,11.11
2022-09-10T01:36:50.465Z,11.11
2022-09-10T01:39:20.991Z,11.03
2022-09-10T01:41:50.735Z,11.10
2022-09-10T01:44:41.221Z,11.07
2022-09-10T01:47:17.834Z,11.11
2022-09-10T01:50:03.779Z,11.22
2022-09-10T01:52:56.339Z,11.21
2022-09-10T01:55:45.183Z,11.15
2022-09-10T01:58:22.057Z,11.13
2022-09-10T02:01:15.689Z,11.18
2022-09-10T02:03:46.938Z,11.20
2022-09-10T02:06:19.485Z,11.13
2022-09-10T02:08:52.891Z,11.25
2022-09-10T02:11:21.485Z,11.25
2022-09-10T02:13:52.042Z,11.19
2022-09-10T02:16:37.841Z,11.21
2022-09-10T02:19:06.597Z,11.11
2022-09-10T02:21:34.580Z,11.04
2022-09-10T02:24:10.137Z,11.13
2022-09-10T02:26:40.758Z,11.11
2022-09-10T02:29:10.222Z,11.09
2022-09-10T02:31:40.072Z,11.08
2022-09-10T02:34:07.381Z,11.16
2022-09-10T02:36:35.892Z,11.10
2022-09-10T02:39:05.061Z,11.27
2022-09-10T02:41:34.267Z,11.18
2022-09-10T02:44:03.539Z,11.17
2022-09-10T02:46:31.139Z,11.05
2022-09-10T02:48:59.002Z,11.18
2022-09-10T02:51:26.378Z,11.08
2022-09-10T02:53:55.788Z,11.06
2022-09-10T02:56:23.857Z,11.08
2022-09-10T02:58:51.345Z,11.09
2022-09-10T03:01:21.124Z,11.12
2022-09-10T03:04:00.595Z,11.14
2022-09-10T03:06:29.590Z,11.03
2022-09-10T03:08:58.397Z,11.21
2022-09-10T03:11:27.625Z,11.07
2022-09-10T03:13:55.921Z,11.23
2022-09-10T03:16:24.446Z,11.19
2022-09-10T03:18:52.466Z,11.10
2022-09-10T03:21:23.818Z,11.21
2022-09-10T03:23:52.933Z,11.19
2022-09-10T03:26:25.623Z,11.06
2022-09-10T03:28:53.911Z,11.17
2022-09-10T03:31:23.528Z,11.10
2022-09-10T03:33:51.821Z,11.03
2022-09-10T03:36:21.047Z,11.02
2022-09-10T03:38:50.184Z,11.05
2022-09-10T03:41:17.665Z,11.03
2022-09-10T03:43:45.644Z,11.12
2022-09-10T03:46:13.160Z,11.09
2022-09-10T03:48:43.839Z,11.12
2022-09-10T03:51:11.508Z,11.13
2022-09-10T03:53:40.969Z,11.05
2022-09-10T03:56:13.039Z,11.03
2022-09-10T03:58:41.168Z,11.14
2022-09-10T04:01:10.172Z,11.13
2022-09-10T04:03:42.159Z,11.10
2022-09-10T04:06:10.991Z,11.11
2022-09-10T04:08:39.490Z,11.12
2022-09-10T04:11:09.466Z,11.10
2022-09-10T04:13:36.704Z,11.21
2022-09-10T04:16:04.248Z,11.05
2022-09-10T04:18:34.575Z,11.05
2022-09-10T04:21:03.562Z,11.05
2022-09-10T04:23:30.963Z,11.05
2022-09-10T04:25:58.278Z,11.06
2022-09-10T04:28:25.882Z,11.08
2022-09-10T04:30:54.577Z,11.09
2022-09-10T04:33:25.134Z,11.13
2022-09-10T04:35:52.756Z,11.16
2022-09-10T04:38:21.000Z,11.01
2022-09-10T04:40:49.283Z,11.05
2022-09-10T04:43:17.420Z,11.07
2022-09-10T04:45:45.237Z,11.05
2022-09-10T04:48:12.918Z,11.04
2022-09-10T04:50:54.075Z,11.10
2022-09-10T04:53:28.704Z,11.16
2022-09-10T04:55:57.674Z,11.02
2022-09-10T04:58:24.982Z,11.01
2022-09-10T05:00:52.425Z,11.00
2022-09-10T05:03:20.837Z,11.05
2022-09-10T05:05:48.531Z,11.09
2022-09-10T05:08:15.934Z,11.01
2022-09-10T05:10:50.470Z,11.10
2022-09-10T05:13:18.365Z,11.21
2022-09-10T05:15:46.196Z,11.01
2022-09-10T05:18:16.788Z,11.16
2022-09-10T05:20:45.094Z,11.10
2022-09-10T05:23:12.720Z,11.29
2022-09-10T05:25:43.845Z,11.17
2022-09-10T05:28:11.611Z,11.19
2022-09-10T05:30:38.873Z,11.14
2022-09-10T05:33:06.439Z,11.12
2022-09-10T05:35:34.812Z,11.17
2022-09-10T05:38:02.094Z,11.06
2022-09-10T05:40:32.187Z,11.18
2022-09-10T05:43:00.333Z,11.07
2022-09-10T05:45:27.628Z,11.07
2022-09-10T05:47:57.332Z,11.18
2022-09-10T05:50:24.809Z,11.16
2022-09-10T05:52:53.265Z,11.14
2022-09-10T05:55:20.931Z,11.10
2022-09-10T05:57:49.389Z,11.26
2022-09-10T06:00:19.575Z,11.19
2022-09-10T06:02:59.676Z,11.23
2022-09-10T06:05:34.925Z,11.39
2022-09-10T06:08:08.020Z,11.28
2022-09-10T06:10:39.533Z,11.22
2022-09-10T06:13:07.189Z,11.22
2022-09-10T06:15:36.197Z,11.16
2022-09-10T06:18:04.601Z,11.29
2022-09-10T06:20:32.949Z,11.18
2022-09-10T06:23:00.919Z,11.17
2022-09-10T06:25:28.951Z,11.09
2022-09-10T06:27:57.660Z,11.29
2022-09-10T06:30:26.193Z,11.37
2022-09-10T06:32:53.455Z,11.39
2022-09-10T06:35:21.683Z,11.20
2022-09-10T06:37:50.367Z,11.25
2022-09-10T06:40:18.588Z,11.45
2022-09-10T06:42:45.958Z,11.46
2022-09-10T06:45:13.223Z,11.38
2022-09-10T06:51:02.016Z,11.33
2022-09-10T06:53:35.147Z,11.46
2022-09-10T06:56:05.968Z,11.24
2022-09-10T06:58:35.422Z,11.21
2022-09-10T07:01:23.969Z,11.34
2022-09-10T07:03:56.946Z,11.33
2022-09-10T07:06:26.688Z,11.37
2022-09-10T07:08:59.625Z,11.47
2022-09-10T07:11:32.579Z,11.37
2022-09-10T07:14:02.033Z,11.38
2022-09-10T07:16:32.130Z,11.28
2022-09-10T07:19:00.431Z,11.43
2022-09-10T07:21:40.968Z,11.36
2022-09-10T07:24:15.093Z,11.56
2022-09-10T07:26:51.588Z,11.59
2022-09-10T07:29:18.993Z,11.61
2022-09-10T07:31:48.243Z,11.83
2022-09-10T07:34:20.747Z,12.07
2022-09-10T07:36:47.931Z,12.15
2022-09-10T07:39:15.850Z,11.84
2022-09-10T07:41:43.807Z,11.72
2022-09-10T07:44:14.577Z,11.98
2022-09-10T07:46:45.122Z,12.19
2022-09-10T07:49:13.870Z,12.18
2022-09-10T07:51:44.772Z,11.75
2022-09-10T07:54:17.041Z,11.75
2022-09-10T07:56:49.268Z,11.97
2022-09-10T07:59:16.826Z,11.83
2022-09-10T08:01:50.847Z,11.88
2022-09-10T08:04:20.242Z,11.81
2022-09-10T08:06:47.378Z,11.64
2022-09-10T08:09:15.013Z,11.85
2022-09-10T08:11:50.367Z,11.64
2022-09-10T08:14:20.219Z,11.68
2022-09-10T08:16:51.376Z,11.80
2022-09-10T08:19:19.738Z,11.57
2022-09-10T08:21:47.749Z,11.62
2022-09-10T08:24:20.790Z,11.68
2022-09-10T08:26:50.397Z,11.72
2022-09-10T08:29:19.352Z,11.66
2022-09-10T08:31:47.505Z,11.67
2022-09-10T08:34:29.027Z,11.98
2022-09-10T08:37:04.445Z,12.15
2022-09-10T08:39:34.386Z,11.94
2022-09-10T08:42:09.337Z,11.88
2022-09-10T08:45:15.353Z,12.16
2022-09-10T08:48:24.150Z,12.22
2022-09-10T08:50:59.238Z,12.06
2022-09-10T08:53:45.831Z,11.87
2022-09-10T08:56:21.514Z,11.85
2022-09-10T08:59:00.040Z,11.85
2022-09-10T09:01:40.559Z,11.85
2022-09-10T09:04:19.132Z,12.14
2022-09-10T09:06:56.694Z,12.23
2022-09-10T09:09:24.596Z,12.42
2022-09-10T09:12:07.458Z,12.61
2022-09-10T09:14:49.173Z,12.73
2022-09-10T09:17:35.228Z,12.67
2022-09-10T09:20:14.166Z,12.36
2022-09-10T09:22:50.202Z,12.73
2022-09-10T09:25:23.944Z,12.91
2022-09-10T09:27:55.600Z,13.02
2022-09-10T09:30:37.728Z,12.80
2022-09-10T09:33:19.957Z,12.64
2022-09-10T09:35:53.093Z,12.94
2022-09-10T09:38:26.792Z,12.72
2022-09-10T09:41:00.536Z,12.65
2022-09-10T09:43:34.888Z,12.60
2022-09-10T09:46:02.965Z,12.50
2022-09-10T09:48:40.088Z,12.39
2022-09-10T09:51:13.558Z,12.38
2022-09-10T09:53:45.103Z,12.14
2022-09-10T09:56:51.736Z,12.10
2022-09-10T09:59:30.729Z,12.37
2022-09-10T10:02:10.892Z,12.38
2022-09-10T10:04:42.415Z,12.43
2022-09-10T10:07:11.980Z,12.42
2022-09-10T10:09:44.144Z,12.50
2022-09-10T10:12:22.243Z,12.54
2022-09-10T10:14:50.000Z,12.80
2022-09-10T10:17:46.321Z,12.75
2022-09-10T10:20:16.975Z,12.74
2022-09-10T10:22:46.482Z,13.00
2022-09-10T10:25:33.192Z,12.57
2022-09-10T10:28:00.983Z,12.84
2022-09-10T10:30:31.674Z,13.04
2022-09-10T10:33:03.499Z,13.14
2022-09-10T10:35:44.275Z,13.44
2022-09-10T10:38:31.377Z,13.57
2022-09-10T10:41:09.657Z,13.58
2022-09-10T10:43:49.178Z,13.54
2022-09-10T10:46:34.494Z,13.72
2022-09-10T10:49:33.308Z,13.91
2022-09-10T10:52:12.623Z,13.83
2022-09-10T10:54:51.858Z,13.51
2022-09-10T10:57:33.593Z,13.35
2022-09-10T11:00:08.202Z,13.46
2022-09-10T11:02:36.207Z,13.48
2022-09-10T11:05:18.520Z,13.60
2022-09-10T11:07:47.355Z,13.56
2022-09-10T11:10:19.027Z,13.45
2022-09-10T11:12:57.113Z,13.43
2022-09-10T11:15:48.372Z,13.76
2022-09-10T11:18:27.322Z,13.38
2022-09-10T11:21:34.835Z,13.48
2022-09-10T11:24:06.773Z,13.29
2022-09-10T11:26:45.607Z,13.40
2022-09-10T11:30:04.395Z,12.89
2022-09-10T11:32:40.548Z,12.86
2022-09-10T11:35:10.773Z,12.56
2022-09-10T11:38:08.979Z,12.77
2022-09-10T11:40:46.533Z,12.63
2022-09-10T11:43:22.607Z,12.59
2022-09-10T11:46:00.210Z,12.61
2022-09-10T11:48:32.021Z,12.72
2022-09-10T11:51:10.836Z,12.68
2022-09-10T11:53:38.169Z,12.56
2022-09-10T11:56:26.834Z,12.51
2022-09-10T11:59:09.184Z,12.63
2022-09-10T12:01:56.203Z,12.89
2022-09-10T12:04:26.397Z,13.10
2022-09-10T12:07:02.825Z,13.32
2022-09-10T12:10:14.390Z,13.25
2022-09-10T12:12:50.270Z,13.18
2022-09-10T12:15:23.501Z,13.67
2022-09-10T12:17:58.920Z,13.91
2022-09-10T12:20:32.219Z,13.98
2022-09-10T12:23:00.416Z,13.61
2022-09-10T12:25:34.551Z,13.83
2022-09-10T12:28:07.954Z,14.27
2022-09-10T12:30:38.413Z,14.29
2022-09-10T12:33:11.897Z,14.42
2022-09-10T12:35:47.933Z,14.17
2022-09-10T12:38:46.168Z,13.85
2022-09-10T12:41:36.177Z,13.25
2022-09-10T12:44:36.139Z,13.45
2022-09-10T12:47:15.216Z,13.26
2022-09-10T12:49:58.297Z,12.90
2022-09-10T12:52:52.961Z,12.88
2022-09-10T12:55:38.977Z,13.05
2022-09-10T12:58:17.210Z,13.25
2022-09-10T13:00:56.433Z,13.14
2022-09-10T13:03:29.146Z,12.94
2022-09-10T13:05:59.660Z,12.92
2022-09-10T13:08:33.765Z,13.05
2022-09-10T13:11:03.007Z,13.06
2022-09-10T13:13:33.650Z,13.00
2022-09-10T13:16:02.717Z,12.93
2022-09-10T13:18:35.957Z,12.66
2022-09-10T13:21:24.838Z,12.80
2022-09-10T13:23:56.469Z,12.87
2022-09-10T13:26:34.114Z,12.85
2022-09-10T13:29:26.043Z,12.67
2022-09-10T13:32:08.310Z,12.52
2022-09-10T13:35:06.309Z,12.72
2022-09-10T13:37:41.521Z,12.71
2022-09-10T13:40:27.819Z,12.68
2022-09-10T13:42:54.944Z,12.69
2022-09-10T13:45:41.808Z,12.55
2022-09-10T13:48:17.555Z,12.62
2022-09-10T13:51:15.384Z,12.56
2022-09-10T13:53:45.566Z,12.58
2022-09-10T13:56:26.775Z,12.60
2022-09-10T13:59:00.980Z,12.55
2022-09-10T14:01:59.536Z,12.71
2022-09-10T14:04:31.992Z,12.71
2022-09-10T14:07:23.603Z,12.83
2022-09-10T14:09:56.840Z,12.83
2022-09-10T14:12:28.870Z,12.86
2022-09-10T14:15:00.032Z,12.92
2022-09-10T14:17:35.196Z,13.05
2022-09-10T14:20:12.919Z,12.87
2022-09-10T14:22:40.965Z,13.02
2022-09-10T14:25:29.983Z,13.13
2022-09-10T14:28:27.593Z,13.11
2022-09-10T14:31:27.093Z,13.19
2022-09-10T14:33:55.970Z,13.19
2022-09-10T14:36:31.121Z,13.22
2022-09-10T14:39:03.621Z,13.26
2022-09-10T14:41:33.810Z,13.31
2022-09-10T14:44:29.802Z,13.22
2022-09-10T14:47:14.880Z,13.17
2022-09-10T14:49:44.620Z,13.21
2022-09-10T14:52:11.898Z,13.18
2022-09-10T14:54:39.344Z,13.29
2022-09-10T14:57:13.970Z,13.13
2022-09-10T14:59:43.801Z,13.25
2022-09-10T15:02:23.247Z,13.22
2022-09-10T15:04:50.917Z,13.14
2022-09-10T15:07:18.368Z,13.02
2022-09-10T15:09:46.881Z,12.99
2022-09-10T15:12:31.796Z,13.05
2022-09-10T15:14:59.380Z,13.06
2022-09-10T15:17:27.136Z,13.05
2022-09-10T15:19:55.358Z,13.01
2022-09-10T15:22:27.970Z,13.20
2022-09-10T15:25:09.633Z,13.22
2022-09-10T15:27:37.721Z,13.18
2022-09-10T15:30:05.847Z,13.23
2022-09-10T15:32:33.108Z,13.14
2022-09-10T15:35:01.248Z,13.11
2022-09-10T15:37:28.427Z,13.09
2022-09-10T15:39:58.051Z,13.15
2022-09-10T15:42:25.581Z,13.16
2022-09-10T15:44:52.787Z,13.16
2022-09-10T15:47:19.922Z,13.20
2022-09-10T15:49:47.281Z,13.16
2022-09-10T15:52:14.398Z,13.15
2022-09-10T15:54:43.196Z,13.15
2022-09-10T15:57:10.652Z,13.13
2022-09-10T15:59:37.868Z,13.31
2022-09-10T16:02:06.302Z,13.24
2022-09-10T16:04:36.179Z,13.15
2022-09-10T16:07:04.104Z,13.09
2022-09-10T16:09:31.290Z,13.13
2022-09-10T16:11:58.899Z,13.08
2022-09-10T16:14:26.029Z,13.13
2022-09-10T16:16:53.890Z,13.14
2022-09-10T16:19:21.277Z,13.06
2022-09-10T16:21:48.513Z,13.04
2022-09-10T16:24:15.707Z,13.09
2022-09-10T16:26:43.908Z,13.30
2022-09-10T16:29:16.683Z,13.58
2022-09-10T16:31:47.275Z,13.31
2022-09-10T16:34:18.477Z,13.19
2022-09-10T16:36:48.980Z,13.09
2022-09-10T16:39:16.488Z,12.99
2022-09-10T16:41:48.595Z,13.12
2022-09-10T16:44:17.667Z,12.97
2022-09-10T16:46:46.326Z,13.14
2022-09-10T16:49:15.193Z,13.10
2022-09-10T16:51:43.833Z,13.25
2022-09-10T16:54:11.922Z,13.33
2022-09-10T16:56:42.181Z,13.06
2022-09-10T16:59:16.075Z,12.95
2022-09-10T17:01:45.153Z,12.91
2022-09-10T17:04:21.359Z,12.90
2022-09-10T17:06:50.877Z,13.16
2022-09-10T17:09:18.327Z,13.29
2022-09-10T17:11:45.518Z,13.28
2022-09-10T17:14:12.765Z,13.28
2022-09-10T17:16:42.212Z,13.29
2022-09-10T17:19:18.693Z,13.12
2022-09-10T17:21:51.342Z,13.08
2022-09-10T17:24:22.843Z,12.98
2022-09-10T17:26:50.661Z,12.89
2022-09-10T17:29:20.682Z,12.94
2022-09-10T17:31:48.179Z,12.97
2022-09-10T17:34:16.849Z,13.04
2022-09-10T17:36:46.207Z,13.00
2022-09-10T17:39:14.683Z,13.05
2022-09-10T17:41:43.107Z,13.23
2022-09-10T17:44:11.508Z,12.99
2022-09-10T17:46:38.759Z,13.22
2022-09-10T17:49:06.573Z,13.23
2022-09-10T17:51:34.827Z,13.21
2022-09-10T17:54:05.085Z,13.21
2022-09-10T17:56:32.440Z,13.27
2022-09-10T17:59:01.811Z,13.17
2022-09-10T18:01:31.857Z,13.00
2022-09-10T18:03:59.366Z,12.81
2022-09-10T18:06:29.122Z,12.74
2022-09-10T18:09:00.793Z,12.85
2022-09-10T18:11:29.644Z,12.86
2022-09-10T18:13:58.139Z,12.80
2022-09-10T18:16:28.413Z,12.72
2022-09-10T18:19:16.179Z,12.80
2022-09-10T18:21:46.408Z,12.64
2022-09-10T18:24:15.109Z,12.81
2022-09-10T18:26:45.083Z,12.78
2022-09-10T18:29:32.622Z,12.73
2022-09-10T18:32:03.292Z,12.69
2022-09-10T18:34:31.135Z,12.81
2022-09-10T18:37:00.650Z,12.85
2022-09-10T18:39:30.959Z,12.83
2022-09-10T18:42:01.011Z,12.71
2022-09-10T18:44:33.209Z,12.52
2022-09-10T18:47:01.019Z,12.53
2022-09-10T18:49:28.509Z,12.50
2022-09-10T18:51:56.571Z,12.63
2022-09-10T18:54:25.051Z,12.68
2022-09-10T18:56:52.860Z,12.65
2022-09-10T18:59:23.170Z,12.47
2022-09-10T19:01:53.269Z,12.50
2022-09-10T19:04:23.903Z,12.42
2022-09-10T19:06:51.699Z,12.53
2022-09-10T19:09:24.981Z,12.49
2022-09-10T19:11:54.073Z,12.44
2022-09-10T19:14:27.506Z,12.42
2022-09-10T19:16:56.588Z,12.39
2022-09-10T19:19:26.478Z,12.33
2022-09-10T19:21:56.289Z,12.15
2022-09-10T19:24:44.088Z,12.23
2022-09-10T19:27:13.978Z,12.14
2022-09-10T19:29:42.328Z,12.24
2022-09-10T19:32:11.349Z,12.29
2022-09-10T19:34:39.111Z,12.26
2022-09-10T19:37:07.307Z,12.17
2022-09-10T19:39:34.554Z,12.34
2022-09-10T19:42:01.840Z,12.23
2022-09-10T19:44:29.211Z,12.26
2022-09-10T19:46:56.380Z,12.13
2022-09-10T19:49:23.615Z,12.16
2022-09-10T19:51:51.006Z,12.23
2022-09-10T19:54:18.387Z,12.17
2022-09-10T19:56:46.393Z,12.08
2022-09-10T19:59:14.627Z,11.99
2022-09-10T20:01:43.793Z,11.97
2022-09-10T20:04:12.150Z,11.89
2022-09-10T20:06:39.746Z,11.98
2022-09-10T20:09:08.720Z,11.99
2022-09-10T20:11:36.284Z,11.90
2022-09-10T20:14:08.070Z,11.94
2022-09-10T20:16:37.690Z,12.00
2022-09-10T20:19:06.538Z,12.04
2022-09-10T20:21:34.985Z,12.08
2022-09-10T20:24:02.122Z,12.04
2022-09-10T20:26:35.045Z,12.00
2022-09-10T20:29:05.330Z,12.00
2022-09-10T20:31:35.587Z,11.97
2022-09-10T20:34:05.354Z,12.06
2022-09-10T20:36:35.038Z,11.96
2022-09-10T20:39:03.012Z,12.12
2022-09-10T20:41:30.636Z,12.11
2022-09-10T20:43:59.858Z,12.08
2022-09-10T20:46:29.547Z,12.09
2022-09-10T20:49:03.204Z,12.11
2022-09-10T20:51:36.008Z,12.20
2022-09-10T20:54:04.534Z,12.10
2022-09-10T20:56:32.671Z,12.09
2022-09-10T20:59:01.556Z,12.04
2022-09-10T21:01:31.227Z,12.02
2022-09-10T21:04:00.574Z,11.94
2022-09-10T21:06:30.175Z,11.94
2022-09-10T21:08:58.178Z,11.99
2022-09-10T21:11:27.841Z,12.05
2022-09-10T21:13:57.387Z,12.02
2022-09-10T21:16:29.862Z,12.09
2022-09-10T21:19:09.604Z,12.09
2022-09-10T21:21:39.437Z,12.02
2022-09-10T21:24:10.918Z,12.04
2022-09-10T21:26:39.994Z,12.04
2022-09-10T21:29:11.781Z,11.98
2022-09-10T21:31:39.234Z,12.01
2022-09-10T21:34:06.791Z,12.01
2022-09-10T21:36:36.066Z,12.13
2022-09-10T21:39:06.786Z,12.13
2022-09-10T21:41:39.970Z,12.00
2022-09-10T21:44:12.273Z,11.86
2022-09-10T21:46:40.569Z,11.90
2022-09-10T21:49:08.208Z,11.93
2022-09-10T21:51:35.647Z,11.95
2022-09-10T21:54:04.460Z,12.08
2022-09-10T21:56:32.253Z,12.12
2022-09-10T21:59:01.189Z,11.97
2022-09-10T22:01:30.557Z,11.96
2022-09-10T22:04:00.793Z,12.02
2022-09-10T22:06:33.444Z,12.08
2022-09-10T22:09:12.525Z,11.72
2022-09-10T22:11:46.887Z,11.55
2022-09-10T22:14:19.213Z,11.62
2022-09-10T22:16:46.516Z,11.57
2022-09-10T22:19:19.192Z,11.54
2022-09-10T22:21:47.221Z,11.41
2022-09-10T22:24:17.356Z,11.49
2022-09-10T22:26:45.444Z,11.56
2022-09-10T22:29:16.185Z,11.55
2022-09-10T22:31:43.352Z,11.48
2022-09-10T22:34:13.636Z,11.53
2022-09-10T22:36:42.559Z,11.52
2022-09-10T22:39:15.499Z,11.41
2022-09-10T22:41:43.549Z,11.42
2022-09-10T22:44:11.037Z,11.55
2022-09-10T22:46:38.896Z,11.48
2022-09-10T22:49:08.100Z,11.59
2022-09-10T22:51:38.247Z,11.52
2022-09-10T22:54:06.409Z,11.72
2022-09-10T22:56:37.485Z,11.76
2022-09-10T22:59:05.879Z,11.58
2022-09-10T23:01:38.008Z,11.71
2022-09-10T23:04:07.215Z,11.64
2022-09-10T23:06:36.776Z,11.68
2022-09-10T23:09:07.038Z,11.62
2022-09-10T23:11:36.319Z,11.76
2022-09-10T23:14:09.261Z,11.68
2022-09-10T23:16:38.946Z,11.70
2022-09-10T23:19:17.585Z,11.92
2022-09-10T23:21:47.521Z,11.91
2022-09-10T23:24:17.266Z,11.88
2022-09-10T23:26:45.081Z,12.06
2022-09-10T23:29:13.171Z,12.06
2022-09-10T23:31:41.048Z,11.96
2022-09-10T23:34:11.783Z,11.98
2022-09-10T23:36:41.563Z,11.96
2022-09-10T23:39:13.157Z,11.90
2022-09-10T23:41:41.540Z,11.83
2022-09-10T23:44:09.686Z,11.79
2022-09-10T23:46:37.111Z,11.78
2022-09-10T23:49:05.403Z,11.83
2022-09-10T23:51:32.561Z,11.85
2022-09-10T23:53:59.879Z,11.89
2022-09-10T23:56:28.546Z,11.90
2022-09-10T23:58:59.319Z,12.09
